sensor_id;sensor_type;location;lat;lon;timestamp;P1;durP1;ratioP1;P2;durP2;ratioP2
24663;SDS011;12791;50.992;13.788;2023-02-28T00:00:04;10.35;;;7.80;;
24663;SDS011;12791;50.992;13.788;2023-02-28T00:02:36;11.35;;;8.02;;
24663;SDS011;12791;50.992;13.788;2023-02-28T00:05:03;12.35;;;6.88;;
24663;SDS011;12791;50.992;13.788;2023-02-28T00:07:31;9.07;;;6.68;;
24663;SDS011;12791;50.992;13.788;2023-02-28T00:09:58;7.13;;;5.35;;
24663;SDS011;12791;50.992;13.788;2023-02-28T00:12:25;6.82;;;5.47;;
24663;SDS011;12791;50.992;13.788;2023-02-28T00:14:52;8.77;;;5.70;;
24663;SDS011;12791;50.992;13.788;2023-02-28T00:17:19;7.63;;;5.88;;
24663;SDS011;12791;50.992;13.788;2023-02-28T00:19:48;8.82;;;6.15;;
24663;SDS011;12791;50.992;13.788;2023-02-28T00:22:15;9.63;;;6.40;;
24663;SDS011;12791;50.992;13.788;2023-02-28T00:24:42;11.38;;;7.43;;
24663;SDS011;12791;50.992;13.788;2023-02-28T00:27:08;8.38;;;6.63;;
24663;SDS011;12791;50.992;13.788;2023-02-28T00:29:35;8.90;;;6.65;;
24663;SDS011;12791;50.992;13.788;2023-02-28T00:32:02;9.48;;;6.75;;
24663;SDS011;12791;50.992;13.788;2023-02-28T00:34:29;8.38;;;6.65;;
24663;SDS011;12791;50.992;13.788;2023-02-28T00:36:57;8.20;;;6.88;;
24663;SDS011;12791;50.992;13.788;2023-02-28T00:39:23;9.00;;;7.45;;
24663;SDS011;12791;50.992;13.788;2023-02-28T00:41:50;8.88;;;6.85;;
24663;SDS011;12791;50.992;13.788;2023-02-28T00:44:17;9.75;;;7.32;;
24663;SDS011;12791;50.992;13.788;2023-02-28T00:46:46;10.73;;;7.28;;
24663;SDS011;12791;50.992;13.788;2023-02-28T00:49:13;8.88;;;6.30;;
24663;SDS011;12791;50.992;13.788;2023-02-28T00:51:39;11.18;;;6.95;;
24663;SDS011;12791;50.992;13.788;2023-02-28T00:54:07;7.88;;;5.82;;
24663;SDS011;12791;50.992;13.788;2023-02-28T00:56:34;7.95;;;6.20;;
24663;SDS011;12791;50.992;13.788;2023-02-28T00:59:00;7.25;;;5.90;;
24663;SDS011;12791;50.992;13.788;2023-02-28T01:01:27;9.25;;;5.63;;
24663;SDS011;12791;50.992;13.788;2023-02-28T01:03:53;9.15;;;6.30;;
24663;SDS011;12791;50.992;13.788;2023-02-28T01:06:20;10.05;;;6.90;;
24663;SDS011;12791;50.992;13.788;2023-02-28T01:08:47;7.95;;;6.13;;
24663;SDS011;12791;50.992;13.788;2023-02-28T01:11:15;8.35;;;6.18;;
24663;SDS011;12791;50.992;13.788;2023-02-28T01:13:43;8.55;;;5.93;;
24663;SDS011;12791;50.992;13.788;2023-02-28T01:16:12;7.57;;;5.70;;
24663;SDS011;12791;50.992;13.788;2023-02-28T01:18:38;11.35;;;6.45;;
24663;SDS011;12791;50.992;13.788;2023-02-28T01:21:06;9.57;;;7.22;;
24663;SDS011;12791;50.992;13.788;2023-02-28T01:23:34;10.50;;;6.38;;
24663;SDS011;12791;50.992;13.788;2023-02-28T01:26:03;7.32;;;5.53;;
24663;SDS011;12791;50.992;13.788;2023-02-28T01:28:31;10.07;;;6.13;;
24663;SDS011;12791;50.992;13.788;2023-02-28T01:30:58;9.93;;;6.65;;
24663;SDS011;12791;50.992;13.788;2023-02-28T01:33:25;8.35;;;6.63;;
24663;SDS011;12791;50.992;13.788;2023-02-28T01:35:57;8.45;;;5.95;;
24663;SDS011;12791;50.992;13.788;2023-02-28T01:38:24;7.57;;;5.55;;
24663;SDS011;12791;50.992;13.788;2023-02-28T01:40:51;8.70;;;6.20;;
24663;SDS011;12791;50.992;13.788;2023-02-28T01:43:20;8.85;;;6.10;;
24663;SDS011;12791;50.992;13.788;2023-02-28T01:45:50;8.95;;;6.15;;
24663;SDS011;12791;50.992;13.788;2023-02-28T01:48:18;7.95;;;5.85;;
24663;SDS011;12791;50.992;13.788;2023-02-28T01:50:46;7.25;;;5.63;;
24663;SDS011;12791;50.992;13.788;2023-02-28T01:53:15;11.52;;;6.45;;
24663;SDS011;12791;50.992;13.788;2023-02-28T01:55:45;8.70;;;6.28;;
24663;SDS011;12791;50.992;13.788;2023-02-28T01:58:14;8.35;;;6.22;;
24663;SDS011;12791;50.992;13.788;2023-02-28T02:00:42;7.35;;;5.75;;
24663;SDS011;12791;50.992;13.788;2023-02-28T02:03:10;8.10;;;5.93;;
24663;SDS011;12791;50.992;13.788;2023-02-28T02:05:39;9.90;;;6.22;;
24663;SDS011;12791;50.992;13.788;2023-02-28T02:08:08;9.75;;;6.25;;
24663;SDS011;12791;50.992;13.788;2023-02-28T02:10:39;9.23;;;6.32;;
24663;SDS011;12791;50.992;13.788;2023-02-28T02:13:12;7.75;;;5.95;;
24663;SDS011;12791;50.992;13.788;2023-02-28T02:15:47;9.27;;;6.28;;
24663;SDS011;12791;50.992;13.788;2023-02-28T02:18:24;9.27;;;7.07;;
24663;SDS011;12791;50.992;13.788;2023-02-28T02:24:00;8.02;;;5.82;;
24663;SDS011;12791;50.992;13.788;2023-02-28T02:29:36;7.70;;;5.82;;
24663;SDS011;12791;50.992;13.788;2023-02-28T02:32:28;7.88;;;5.35;;
24663;SDS011;12791;50.992;13.788;2023-02-28T02:35:15;6.82;;;5.85;;
24663;SDS011;12791;50.992;13.788;2023-02-28T02:37:48;8.57;;;6.43;;
24663;SDS011;12791;50.992;13.788;2023-02-28T02:40:20;11.67;;;6.17;;
24663;SDS011;12791;50.992;13.788;2023-02-28T02:42:50;9.68;;;6.38;;
24663;SDS011;12791;50.992;13.788;2023-02-28T02:45:23;8.70;;;6.20;;
24663;SDS011;12791;50.992;13.788;2023-02-28T02:47:52;8.18;;;6.25;;
24663;SDS011;12791;50.992;13.788;2023-02-28T02:50:24;11.27;;;6.70;;
24663;SDS011;12791;50.992;13.788;2023-02-28T02:52:55;9.65;;;6.82;;
24663;SDS011;12791;50.992;13.788;2023-02-28T02:55:24;8.75;;;6.45;;
24663;SDS011;12791;50.992;13.788;2023-02-28T02:57:52;9.95;;;6.60;;
24663;SDS011;12791;50.992;13.788;2023-02-28T03:00:23;10.57;;;7.20;;
24663;SDS011;12791;50.992;13.788;2023-02-28T03:02:52;10.05;;;7.03;;
24663;SDS011;12791;50.992;13.788;2023-02-28T03:05:24;10.75;;;7.35;;
24663;SDS011;12791;50.992;13.788;2023-02-28T03:07:52;10.38;;;6.90;;
24663;SDS011;12791;50.992;13.788;2023-02-28T03:10:30;10.32;;;6.95;;
24663;SDS011;12791;50.992;13.788;2023-02-28T03:13:18;8.98;;;6.68;;
24663;SDS011;12791;50.992;13.788;2023-02-28T03:16:05;11.60;;;7.93;;
24663;SDS011;12791;50.992;13.788;2023-02-28T03:18:40;10.77;;;7.43;;
24663;SDS011;12791;50.992;13.788;2023-02-28T03:21:18;11.35;;;7.68;;
24663;SDS011;12791;50.992;13.788;2023-02-28T03:23:54;12.27;;;6.97;;
24663;SDS011;12791;50.992;13.788;2023-02-28T03:26:29;13.02;;;8.02;;
24663;SDS011;12791;50.992;13.788;2023-02-28T03:28:59;15.02;;;8.35;;
24663;SDS011;12791;50.992;13.788;2023-02-28T03:31:30;13.18;;;7.70;;
24663;SDS011;12791;50.992;13.788;2023-02-28T03:34:01;11.63;;;8.23;;
24663;SDS011;12791;50.992;13.788;2023-02-28T03:36:33;11.80;;;7.85;;
24663;SDS011;12791;50.992;13.788;2023-02-28T03:39:08;11.27;;;8.15;;
24663;SDS011;12791;50.992;13.788;2023-02-28T03:41:40;14.07;;;8.77;;
24663;SDS011;12791;50.992;13.788;2023-02-28T03:44:13;13.98;;;8.60;;
24663;SDS011;12791;50.992;13.788;2023-02-28T03:46:45;15.43;;;9.50;;
24663;SDS011;12791;50.992;13.788;2023-02-28T03:49:16;13.18;;;9.00;;
24663;SDS011;12791;50.992;13.788;2023-02-28T03:51:47;17.20;;;12.15;;
24663;SDS011;12791;50.992;13.788;2023-02-28T03:54:17;12.85;;;8.82;;
24663;SDS011;12791;50.992;13.788;2023-02-28T03:56:48;14.95;;;9.38;;
24663;SDS011;12791;50.992;13.788;2023-02-28T03:59:20;15.18;;;8.20;;
24663;SDS011;12791;50.992;13.788;2023-02-28T04:01:52;13.32;;;9.90;;
24663;SDS011;12791;50.992;13.788;2023-02-28T04:04:20;11.02;;;7.95;;
24663;SDS011;12791;50.992;13.788;2023-02-28T04:06:50;15.68;;;9.75;;
24663;SDS011;12791;50.992;13.788;2023-02-28T04:09:18;14.77;;;10.18;;
24663;SDS011;12791;50.992;13.788;2023-02-28T04:11:45;15.65;;;9.45;;
24663;SDS011;12791;50.992;13.788;2023-02-28T04:14:16;12.25;;;9.07;;
24663;SDS011;12791;50.992;13.788;2023-02-28T04:16:44;12.93;;;9.18;;
24663;SDS011;12791;50.992;13.788;2023-02-28T04:19:11;16.17;;;10.57;;
24663;SDS011;12791;50.992;13.788;2023-02-28T04:21:39;14.45;;;10.18;;
24663;SDS011;12791;50.992;13.788;2023-02-28T04:24:10;12.98;;;9.68;;
24663;SDS011;12791;50.992;13.788;2023-02-28T04:26:39;14.20;;;9.73;;
24663;SDS011;12791;50.992;13.788;2023-02-28T04:29:08;14.32;;;9.05;;
24663;SDS011;12791;50.992;13.788;2023-02-28T04:31:36;15.30;;;10.82;;
24663;SDS011;12791;50.992;13.788;2023-02-28T04:34:02;14.70;;;9.77;;
24663;SDS011;12791;50.992;13.788;2023-02-28T04:36:29;13.48;;;9.50;;
24663;SDS011;12791;50.992;13.788;2023-02-28T04:38:56;17.50;;;9.93;;
24663;SDS011;12791;50.992;13.788;2023-02-28T04:41:24;15.57;;;9.68;;
24663;SDS011;12791;50.992;13.788;2023-02-28T04:43:51;13.80;;;9.40;;
24663;SDS011;12791;50.992;13.788;2023-02-28T04:46:18;15.15;;;9.68;;
24663;SDS011;12791;50.992;13.788;2023-02-28T04:48:45;16.58;;;10.50;;
24663;SDS011;12791;50.992;13.788;2023-02-28T04:51:12;14.40;;;9.18;;
24663;SDS011;12791;50.992;13.788;2023-02-28T04:53:40;13.65;;;9.60;;
24663;SDS011;12791;50.992;13.788;2023-02-28T04:56:09;14.25;;;9.68;;
24663;SDS011;12791;50.992;13.788;2023-02-28T04:58:39;13.90;;;9.32;;
24663;SDS011;12791;50.992;13.788;2023-02-28T05:01:07;15.40;;;9.07;;
24663;SDS011;12791;50.992;13.788;2023-02-28T05:03:42;13.88;;;9.85;;
24663;SDS011;12791;50.992;13.788;2023-02-28T05:06:09;16.00;;;10.15;;
24663;SDS011;12791;50.992;13.788;2023-02-28T05:08:36;12.98;;;8.90;;
24663;SDS011;12791;50.992;13.788;2023-02-28T05:11:03;18.58;;;9.85;;
24663;SDS011;12791;50.992;13.788;2023-02-28T05:13:33;15.68;;;9.85;;
24663;SDS011;12791;50.992;13.788;2023-02-28T05:16:02;15.63;;;10.02;;
24663;SDS011;12791;50.992;13.788;2023-02-28T05:18:28;14.38;;;9.68;;
24663;SDS011;12791;50.992;13.788;2023-02-28T05:20:55;20.40;;;10.82;;
24663;SDS011;12791;50.992;13.788;2023-02-28T05:23:21;14.55;;;10.38;;
24663;SDS011;12791;50.992;13.788;2023-02-28T05:25:49;18.75;;;10.65;;
24663;SDS011;12791;50.992;13.788;2023-02-28T05:28:16;14.48;;;10.25;;
24663;SDS011;12791;50.992;13.788;2023-02-28T05:30:44;18.33;;;11.05;;
24663;SDS011;12791;50.992;13.788;2023-02-28T05:33:12;15.30;;;10.55;;
24663;SDS011;12791;50.992;13.788;2023-02-28T05:35:38;14.68;;;9.88;;
24663;SDS011;12791;50.992;13.788;2023-02-28T05:38:07;14.63;;;9.82;;
24663;SDS011;12791;50.992;13.788;2023-02-28T05:40:33;15.35;;;11.10;;
24663;SDS011;12791;50.992;13.788;2023-02-28T05:43:00;17.45;;;10.30;;
24663;SDS011;12791;50.992;13.788;2023-02-28T05:45:27;15.65;;;10.00;;
24663;SDS011;12791;50.992;13.788;2023-02-28T05:47:53;15.57;;;10.70;;
24663;SDS011;12791;50.992;13.788;2023-02-28T05:50:22;14.25;;;9.73;;
24663;SDS011;12791;50.992;13.788;2023-02-28T05:52:49;16.42;;;10.23;;
24663;SDS011;12791;50.992;13.788;2023-02-28T05:55:16;19.13;;;11.65;;
24663;SDS011;12791;50.992;13.788;2023-02-28T05:57:43;19.08;;;11.38;;
24663;SDS011;12791;50.992;13.788;2023-02-28T06:00:10;16.15;;;11.30;;
24663;SDS011;12791;50.992;13.788;2023-02-28T06:02:39;18.08;;;11.45;;
24663;SDS011;12791;50.992;13.788;2023-02-28T06:05:07;16.13;;;10.90;;
24663;SDS011;12791;50.992;13.788;2023-02-28T06:07:40;18.05;;;11.20;;
24663;SDS011;12791;50.992;13.788;2023-02-28T06:10:07;14.80;;;9.93;;
24663;SDS011;12791;50.992;13.788;2023-02-28T06:12:34;16.55;;;9.93;;
24663;SDS011;12791;50.992;13.788;2023-02-28T06:15:01;15.95;;;10.88;;
24663;SDS011;12791;50.992;13.788;2023-02-28T06:17:28;19.33;;;13.00;;
24663;SDS011;12791;50.992;13.788;2023-02-28T06:19:54;14.00;;;10.15;;
24663;SDS011;12791;50.992;13.788;2023-02-28T06:22:21;15.77;;;10.30;;
24663;SDS011;12791;50.992;13.788;2023-02-28T06:24:49;16.40;;;10.40;;
24663;SDS011;12791;50.992;13.788;2023-02-28T06:27:17;13.98;;;9.52;;
24663;SDS011;12791;50.992;13.788;2023-02-28T06:29:45;17.45;;;10.18;;
24663;SDS011;12791;50.992;13.788;2023-02-28T06:32:12;14.43;;;9.45;;
24663;SDS011;12791;50.992;13.788;2023-02-28T06:34:38;13.93;;;9.13;;
24663;SDS011;12791;50.992;13.788;2023-02-28T06:37:05;13.90;;;8.95;;
24663;SDS011;12791;50.992;13.788;2023-02-28T06:39:32;13.57;;;9.18;;
24663;SDS011;12791;50.992;13.788;2023-02-28T06:42:00;13.52;;;9.07;;
24663;SDS011;12791;50.992;13.788;2023-02-28T06:44:27;14.15;;;9.98;;
24663;SDS011;12791;50.992;13.788;2023-02-28T06:47:00;18.85;;;10.15;;
24663;SDS011;12791;50.992;13.788;2023-02-28T06:49:28;15.38;;;9.93;;
24663;SDS011;12791;50.992;13.788;2023-02-28T06:51:55;13.57;;;9.57;;
24663;SDS011;12791;50.992;13.788;2023-02-28T06:54:21;15.23;;;9.82;;
24663;SDS011;12791;50.992;13.788;2023-02-28T06:56:48;13.90;;;9.15;;
24663;SDS011;12791;50.992;13.788;2023-02-28T06:59:16;14.13;;;9.75;;
24663;SDS011;12791;50.992;13.788;2023-02-28T07:01:42;12.20;;;9.23;;
24663;SDS011;12791;50.992;13.788;2023-02-28T07:04:10;15.52;;;10.57;;
24663;SDS011;12791;50.992;13.788;2023-02-28T07:06:38;14.90;;;9.50;;
24663;SDS011;12791;50.992;13.788;2023-02-28T07:09:05;13.07;;;10.18;;
24663;SDS011;12791;50.992;13.788;2023-02-28T07:11:31;18.83;;;11.35;;
24663;SDS011;12791;50.992;13.788;2023-02-28T07:13:58;17.40;;;12.02;;
24663;SDS011;12791;50.992;13.788;2023-02-28T07:16:26;22.73;;;14.05;;
24663;SDS011;12791;50.992;13.788;2023-02-28T07:18:53;21.88;;;13.93;;
24663;SDS011;12791;50.992;13.788;2023-02-28T07:21:20;25.13;;;15.48;;
24663;SDS011;12791;50.992;13.788;2023-02-28T07:23:47;24.02;;;14.85;;
24663;SDS011;12791;50.992;13.788;2023-02-28T07:26:14;22.98;;;15.23;;
24663;SDS011;12791;50.992;13.788;2023-02-28T07:28:42;25.90;;;15.80;;
24663;SDS011;12791;50.992;13.788;2023-02-28T07:31:09;26.88;;;16.67;;
24663;SDS011;12791;50.992;13.788;2023-02-28T07:33:38;22.73;;;14.68;;
24663;SDS011;12791;50.992;13.788;2023-02-28T07:36:05;24.23;;;14.80;;
24663;SDS011;12791;50.992;13.788;2023-02-28T07:38:34;20.20;;;13.77;;
24663;SDS011;12791;50.992;13.788;2023-02-28T07:41:01;21.30;;;14.30;;
24663;SDS011;12791;50.992;13.788;2023-02-28T07:43:29;22.02;;;14.13;;
24663;SDS011;12791;50.992;13.788;2023-02-28T07:45:57;20.92;;;13.15;;
24663;SDS011;12791;50.992;13.788;2023-02-28T07:48:27;23.45;;;13.13;;
24663;SDS011;12791;50.992;13.788;2023-02-28T07:50:55;21.40;;;13.25;;
24663;SDS011;12791;50.992;13.788;2023-02-28T07:53:22;20.05;;;13.05;;
24663;SDS011;12791;50.992;13.788;2023-02-28T07:55:49;21.70;;;13.95;;
24663;SDS011;12791;50.992;13.788;2023-02-28T07:58:15;23.05;;;14.13;;
24663;SDS011;12791;50.992;13.788;2023-02-28T08:00:42;22.42;;;13.07;;
24663;SDS011;12791;50.992;13.788;2023-02-28T08:03:09;17.90;;;13.02;;
24663;SDS011;12791;50.992;13.788;2023-02-28T08:05:38;21.58;;;13.30;;
24663;SDS011;12791;50.992;13.788;2023-02-28T08:08:06;22.88;;;14.38;;
24663;SDS011;12791;50.992;13.788;2023-02-28T08:10:33;19.98;;;13.20;;
24663;SDS011;12791;50.992;13.788;2023-02-28T08:13:00;21.27;;;13.60;;
24663;SDS011;12791;50.992;13.788;2023-02-28T08:15:26;19.27;;;12.30;;
24663;SDS011;12791;50.992;13.788;2023-02-28T08:17:53;17.58;;;12.75;;
24663;SDS011;12791;50.992;13.788;2023-02-28T08:20:21;24.02;;;14.38;;
24663;SDS011;12791;50.992;13.788;2023-02-28T08:22:48;18.13;;;12.82;;
24663;SDS011;12791;50.992;13.788;2023-02-28T08:25:16;24.38;;;14.68;;
24663;SDS011;12791;50.992;13.788;2023-02-28T08:27:43;20.15;;;12.60;;
24663;SDS011;12791;50.992;13.788;2023-02-28T08:30:10;19.15;;;13.30;;
24663;SDS011;12791;50.992;13.788;2023-02-28T08:32:37;17.75;;;12.57;;
24663;SDS011;12791;50.992;13.788;2023-02-28T08:35:04;19.50;;;12.52;;
24663;SDS011;12791;50.992;13.788;2023-02-28T08:37:32;20.35;;;13.52;;
24663;SDS011;12791;50.992;13.788;2023-02-28T08:39:58;20.48;;;13.27;;
24663;SDS011;12791;50.992;13.788;2023-02-28T08:42:26;21.73;;;13.90;;
24663;SDS011;12791;50.992;13.788;2023-02-28T08:44:53;19.23;;;13.02;;
24663;SDS011;12791;50.992;13.788;2023-02-28T08:47:19;18.33;;;12.95;;
24663;SDS011;12791;50.992;13.788;2023-02-28T08:49:46;17.52;;;12.45;;
24663;SDS011;12791;50.992;13.788;2023-02-28T08:52:12;18.25;;;12.90;;
24663;SDS011;12791;50.992;13.788;2023-02-28T08:54:39;21.95;;;14.45;;
24663;SDS011;12791;50.992;13.788;2023-02-28T08:57:06;28.20;;;18.05;;
24663;SDS011;12791;50.992;13.788;2023-02-28T08:59:34;28.77;;;20.02;;
24663;SDS011;12791;50.992;13.788;2023-02-28T09:02:00;22.85;;;14.45;;
24663;SDS011;12791;50.992;13.788;2023-02-28T09:04:27;19.75;;;14.65;;
24663;SDS011;12791;50.992;13.788;2023-02-28T09:06:55;20.80;;;14.00;;
24663;SDS011;12791;50.992;13.788;2023-02-28T09:09:22;19.55;;;12.38;;
24663;SDS011;12791;50.992;13.788;2023-02-28T09:11:48;18.42;;;12.57;;
24663;SDS011;12791;50.992;13.788;2023-02-28T09:14:15;19.67;;;13.70;;
24663;SDS011;12791;50.992;13.788;2023-02-28T09:16:43;20.00;;;12.93;;
24663;SDS011;12791;50.992;13.788;2023-02-28T09:19:10;17.98;;;11.93;;
24663;SDS011;12791;50.992;13.788;2023-02-28T09:21:37;15.73;;;11.75;;
24663;SDS011;12791;50.992;13.788;2023-02-28T09:24:03;16.65;;;11.95;;
24663;SDS011;12791;50.992;13.788;2023-02-28T09:26:31;16.55;;;11.75;;
24663;SDS011;12791;50.992;13.788;2023-02-28T09:28:57;18.15;;;11.93;;
24663;SDS011;12791;50.992;13.788;2023-02-28T09:31:25;18.60;;;12.32;;
24663;SDS011;12791;50.992;13.788;2023-02-28T09:33:55;19.75;;;11.90;;
24663;SDS011;12791;50.992;13.788;2023-02-28T09:36:23;20.25;;;13.38;;
24663;SDS011;12791;50.992;13.788;2023-02-28T09:38:51;19.27;;;12.63;;
24663;SDS011;12791;50.992;13.788;2023-02-28T09:41:19;17.98;;;12.68;;
24663;SDS011;12791;50.992;13.788;2023-02-28T09:43:47;19.38;;;12.57;;
24663;SDS011;12791;50.992;13.788;2023-02-28T09:46:27;16.85;;;11.77;;
24663;SDS011;12791;50.992;13.788;2023-02-28T09:48:58;16.42;;;11.60;;
24663;SDS011;12791;50.992;13.788;2023-02-28T09:51:30;18.20;;;11.88;;
24663;SDS011;12791;50.992;13.788;2023-02-28T09:54:02;17.15;;;12.00;;
24663;SDS011;12791;50.992;13.788;2023-02-28T09:56:30;18.73;;;13.23;;
24663;SDS011;12791;50.992;13.788;2023-02-28T09:59:00;16.92;;;11.95;;
24663;SDS011;12791;50.992;13.788;2023-02-28T10:01:31;20.27;;;12.73;;
24663;SDS011;12791;50.992;13.788;2023-02-28T10:04:10;17.38;;;11.43;;
24663;SDS011;12791;50.992;13.788;2023-02-28T10:06:44;16.00;;;11.23;;
24663;SDS011;12791;50.992;13.788;2023-02-28T10:09:19;17.25;;;11.30;;
24663;SDS011;12791;50.992;13.788;2023-02-28T10:11:49;16.77;;;11.52;;
24663;SDS011;12791;50.992;13.788;2023-02-28T10:14:19;18.52;;;11.05;;
24663;SDS011;12791;50.992;13.788;2023-02-28T10:16:50;15.20;;;10.32;;
24663;SDS011;12791;50.992;13.788;2023-02-28T10:19:23;19.17;;;10.95;;
24663;SDS011;12791;50.992;13.788;2023-02-28T10:21:58;18.75;;;11.52;;
24663;SDS011;12791;50.992;13.788;2023-02-28T10:24:28;15.77;;;11.85;;
24663;SDS011;12791;50.992;13.788;2023-02-28T10:26:59;20.58;;;14.10;;
24663;SDS011;12791;50.992;13.788;2023-02-28T10:29:26;15.55;;;10.15;;
24663;SDS011;12791;50.992;13.788;2023-02-28T10:31:57;15.60;;;10.43;;
24663;SDS011;12791;50.992;13.788;2023-02-28T10:34:28;13.80;;;10.55;;
24663;SDS011;12791;50.992;13.788;2023-02-28T10:36:55;14.90;;;9.23;;
24663;SDS011;12791;50.992;13.788;2023-02-28T10:39:36;13.18;;;10.18;;
24663;SDS011;12791;50.992;13.788;2023-02-28T10:42:05;16.75;;;9.63;;
24663;SDS011;12791;50.992;13.788;2023-02-28T10:44:45;17.08;;;10.57;;
24663;SDS011;12791;50.992;13.788;2023-02-28T10:47:13;15.27;;;11.25;;
24663;SDS011;12791;50.992;13.788;2023-02-28T10:49:48;15.50;;;10.55;;
24663;SDS011;12791;50.992;13.788;2023-02-28T10:52:32;17.85;;;10.65;;
24663;SDS011;12791;50.992;13.788;2023-02-28T10:55:14;18.52;;;10.82;;
24663;SDS011;12791;50.992;13.788;2023-02-28T10:57:46;17.38;;;10.82;;
24663;SDS011;12791;50.992;13.788;2023-02-28T11:00:14;13.98;;;9.90;;
24663;SDS011;12791;50.992;13.788;2023-02-28T11:02:43;15.35;;;10.48;;
24663;SDS011;12791;50.992;13.788;2023-02-28T11:05:23;15.63;;;10.27;;
24663;SDS011;12791;50.992;13.788;2023-02-28T11:07:52;15.20;;;11.10;;
24663;SDS011;12791;50.992;13.788;2023-02-28T11:10:20;18.42;;;10.77;;
24663;SDS011;12791;50.992;13.788;2023-02-28T11:12:50;19.33;;;10.95;;
24663;SDS011;12791;50.992;13.788;2023-02-28T11:15:21;18.15;;;10.18;;
24663;SDS011;12791;50.992;13.788;2023-02-28T11:17:53;13.57;;;9.73;;
24663;SDS011;12791;50.992;13.788;2023-02-28T11:20:23;17.60;;;11.80;;
24663;SDS011;12791;50.992;13.788;2023-02-28T11:22:52;17.27;;;11.25;;
24663;SDS011;12791;50.992;13.788;2023-02-28T11:25:20;14.55;;;9.70;;
24663;SDS011;12791;50.992;13.788;2023-02-28T11:27:50;16.15;;;9.93;;
24663;SDS011;12791;50.992;13.788;2023-02-28T11:30:25;14.23;;;10.52;;
24663;SDS011;12791;50.992;13.788;2023-02-28T11:32:57;12.93;;;9.57;;
24663;SDS011;12791;50.992;13.788;2023-02-28T11:35:26;14.98;;;10.10;;
24663;SDS011;12791;50.992;13.788;2023-02-28T11:37:55;13.27;;;9.48;;
24663;SDS011;12791;50.992;13.788;2023-02-28T11:40:24;13.65;;;9.70;;
24663;SDS011;12791;50.992;13.788;2023-02-28T11:43:00;13.98;;;10.05;;
24663;SDS011;12791;50.992;13.788;2023-02-28T11:45:40;13.07;;;9.52;;
24663;SDS011;12791;50.992;13.788;2023-02-28T11:48:13;12.93;;;10.15;;
24663;SDS011;12791;50.992;13.788;2023-02-28T11:50:49;12.15;;;9.35;;
24663;SDS011;12791;50.992;13.788;2023-02-28T11:53:28;12.18;;;8.90;;
24663;SDS011;12791;50.992;13.788;2023-02-28T11:56:14;15.23;;;10.27;;
24663;SDS011;12791;50.992;13.788;2023-02-28T11:58:47;12.40;;;9.53;;
24663;SDS011;12791;50.992;13.788;2023-02-28T12:04:11;10.18;;;8.43;;
24663;SDS011;12791;50.992;13.788;2023-02-28T12:06:54;12.75;;;9.18;;
24663;SDS011;12791;50.992;13.788;2023-02-28T12:09:38;15.40;;;10.23;;
24663;SDS011;12791;50.992;13.788;2023-02-28T12:12:14;13.93;;;10.15;;
24663;SDS011;12791;50.992;13.788;2023-02-28T12:17:49;16.83;;;9.15;;
24663;SDS011;12791;50.992;13.788;2023-02-28T12:20:25;13.60;;;9.32;;
24663;SDS011;12791;50.992;13.788;2023-02-28T12:23:04;14.13;;;9.45;;
24663;SDS011;12791;50.992;13.788;2023-02-28T12:25:47;13.00;;;9.25;;
24663;SDS011;12791;50.992;13.788;2023-02-28T12:28:20;14.10;;;9.77;;
24663;SDS011;12791;50.992;13.788;2023-02-28T12:30:52;14.60;;;9.85;;
24663;SDS011;12791;50.992;13.788;2023-02-28T12:33:22;13.13;;;9.90;;
24663;SDS011;12791;50.992;13.788;2023-02-28T12:35:54;12.55;;;9.10;;
24663;SDS011;12791;50.992;13.788;2023-02-28T12:38:26;14.48;;;9.25;;
24663;SDS011;12791;50.992;13.788;2023-02-28T12:40:56;12.23;;;9.35;;
24663;SDS011;12791;50.992;13.788;2023-02-28T12:43:27;12.00;;;9.15;;
24663;SDS011;12791;50.992;13.788;2023-02-28T12:45:59;14.65;;;9.65;;
24663;SDS011;12791;50.992;13.788;2023-02-28T12:48:30;12.60;;;8.95;;
24663;SDS011;12791;50.992;13.788;2023-02-28T12:51:03;14.60;;;10.52;;
24663;SDS011;12791;50.992;13.788;2023-02-28T12:53:35;18.50;;;11.38;;
24663;SDS011;12791;50.992;13.788;2023-02-28T12:56:13;20.73;;;11.00;;
24663;SDS011;12791;50.992;13.788;2023-02-28T12:58:46;15.88;;;11.85;;
24663;SDS011;12791;50.992;13.788;2023-02-28T13:01:28;15.52;;;11.55;;
24663;SDS011;12791;50.992;13.788;2023-02-28T13:04:29;15.85;;;11.20;;
24663;SDS011;12791;50.992;13.788;2023-02-28T13:07:17;18.15;;;11.13;;
24663;SDS011;12791;50.992;13.788;2023-02-28T13:10:00;16.10;;;12.15;;
24663;SDS011;12791;50.992;13.788;2023-02-28T13:12:31;19.48;;;13.13;;
24663;SDS011;12791;50.992;13.788;2023-02-28T13:15:01;16.85;;;11.85;;
24663;SDS011;12791;50.992;13.788;2023-02-28T13:17:37;17.70;;;11.77;;
24663;SDS011;12791;50.992;13.788;2023-02-28T13:20:14;16.83;;;10.95;;
24663;SDS011;12791;50.992;13.788;2023-02-28T13:22:44;14.50;;;11.18;;
24663;SDS011;12791;50.992;13.788;2023-02-28T13:31:31;21.75;;;14.48;;
24663;SDS011;12791;50.992;13.788;2023-02-28T13:36:41;23.42;;;14.85;;
24663;SDS011;12791;50.992;13.788;2023-02-28T13:42:23;23.33;;;15.65;;
24663;SDS011;12791;50.992;13.788;2023-02-28T13:47:51;19.65;;;14.68;;
24663;SDS011;12791;50.992;13.788;2023-02-28T13:50:21;20.73;;;14.73;;
24663;SDS011;12791;50.992;13.788;2023-02-28T13:52:55;24.98;;;15.93;;
24663;SDS011;12791;50.992;13.788;2023-02-28T13:55:33;23.67;;;15.32;;
24663;SDS011;12791;50.992;13.788;2023-02-28T13:58:15;20.27;;;15.43;;
24663;SDS011;12791;50.992;13.788;2023-02-28T14:00:59;21.60;;;15.85;;
24663;SDS011;12791;50.992;13.788;2023-02-28T14:03:41;22.52;;;15.48;;
24663;SDS011;12791;50.992;13.788;2023-02-28T14:06:22;22.67;;;15.32;;
24663;SDS011;12791;50.992;13.788;2023-02-28T14:08:54;22.52;;;14.93;;
24663;SDS011;12791;50.992;13.788;2023-02-28T14:11:25;21.95;;;15.05;;
24663;SDS011;12791;50.992;13.788;2023-02-28T14:13:56;17.55;;;14.18;;
24663;SDS011;12791;50.992;13.788;2023-02-28T14:16:23;21.77;;;14.93;;
24663;SDS011;12791;50.992;13.788;2023-02-28T14:18:54;18.98;;;14.60;;
24663;SDS011;12791;50.992;13.788;2023-02-28T14:21:24;20.10;;;14.57;;
24663;SDS011;12791;50.992;13.788;2023-02-28T14:27:07;22.63;;;15.48;;
24663;SDS011;12791;50.992;13.788;2023-02-28T14:30:08;21.40;;;15.43;;
24663;SDS011;12791;50.992;13.788;2023-02-28T14:32:59;22.98;;;14.52;;
24663;SDS011;12791;50.992;13.788;2023-02-28T14:35:43;23.15;;;14.57;;
24663;SDS011;12791;50.992;13.788;2023-02-28T14:38:19;21.73;;;15.77;;
24663;SDS011;12791;50.992;13.788;2023-02-28T14:40:47;22.10;;;14.43;;
24663;SDS011;12791;50.992;13.788;2023-02-28T14:43:20;22.77;;;15.43;;
24663;SDS011;12791;50.992;13.788;2023-02-28T14:45:50;21.83;;;15.48;;
24663;SDS011;12791;50.992;13.788;2023-02-28T14:48:19;19.33;;;14.02;;
24663;SDS011;12791;50.992;13.788;2023-02-28T14:50:48;20.77;;;13.52;;
24663;SDS011;12791;50.992;13.788;2023-02-28T14:53:18;18.30;;;12.70;;
24663;SDS011;12791;50.992;13.788;2023-02-28T14:55:46;17.98;;;13.32;;
24663;SDS011;12791;50.992;13.788;2023-02-28T14:58:20;21.27;;;14.88;;
24663;SDS011;12791;50.992;13.788;2023-02-28T15:00:51;19.05;;;14.32;;
24663;SDS011;12791;50.992;13.788;2023-02-28T15:03:20;18.83;;;13.38;;